Hermosillo, Mexico

12:49 PM MST on February 06, 2016 (GMT -0700)
Gen Ignacio Pesqueira Garcia | | Change Station
CLOSE
Current Station
Airport
Location: Hermosillo,
Elevation: 627 ft
Nearby Weather Stations

Elev 627 ft 29.09 °N, 111.05 °W | Updated 1 hour ago

Scattered Clouds
Scattered Clouds
81 °F
Feels Like 81 °F
N
10
Wind Variable Wind from NNE

Today
High -- | Low -- °F
--% Chance of Precip.
Yesterday
High -- | Low -- °F
Precip. -- in
Pressure 30.17 in
Visibility 10.0 miles
Clouds Scattered Clouds 20000 ft
Dew Point 10 °F
Humidity 7%
Rainfall 0.00 in
Snow Depth Not available.
7:10 AM 6:06 PM
Waning Crescent, 4% visible
METAR MMHO 061848Z 03009KT 10SM SCT200 27/M12 A3017 RMK 8/002 HZY
Pressure 30.17 in
Visibility 10.0 miles
Clouds Scattered Clouds 20000 ft
Dew Point 10 °F
Humidity 7%
Rainfall 0.00 in
Snow Depth Not available.
7:10 AM 6:06 PM
Waning Crescent, 4% visible
METAR MMHO 061848Z 03009KT 10SM SCT200 27/M12 A3017 RMK 8/002 HZY

10-Day Weather Forecast

No radar image for this location.
×

Almanac

Astronomy

Feb. 06, 2016 Rise Set
Actual Time
Civil Twilight
Nautical Twilight
Astronomical Twilight
Moon
Length of Visible Light
Length of Day
Tomorrow will be .
, % of the Moon is Illuminated

Today's Extremes

Country Highs Country Lows

Community

WunderPhotos

Upload Photos

1,891,037 photos uploaded!

WunderBlog® & News

Nearby

Air Quality

  Air Quality AQ Index Pollutant
Not available.

Snow Depth

Station Depth Elevation

Earthquake Activity

City Distance Mag. Time & Date
Minimum magnitude displayed is 2.5.

Coastal Water Temperatures

Place Temperature

Stations

Nearby Weather Stations

Station Location Temp. Windchill Dew Point Humidity Wind Precip. Elev Updated Type